createdAt,value
2017-04-11T00:01:12.869Z,25.29
2017-04-11T00:02:12.805Z,25.29
2017-04-11T00:03:12.742Z,25.29
2017-04-11T00:04:12.379Z,25.31
2017-04-11T00:05:12.616Z,25.29
2017-04-11T00:06:12.559Z,25.29
2017-04-11T00:07:12.497Z,25.5
2017-04-11T00:08:12.127Z,25.29
2017-04-11T00:09:12.368Z,25.21
2017-04-11T00:10:12.316Z,25.49
2017-04-11T00:11:12.242Z,25.29
2017-04-11T00:12:12.181Z,25.39
2017-04-11T00:13:12.118Z,25.39
2017-04-11T00:14:12.111Z,25.39
2017-04-11T00:15:11.993Z,25.39
2017-04-11T00:16:11.930Z,25.29
2017-04-11T00:17:11.565Z,25.4
2017-04-11T00:18:12.008Z,25.39
2017-04-11T00:19:11.747Z,25.49
2017-04-11T00:20:11.682Z,25.4
2017-04-11T00:21:11.619Z,25.39
2017-04-11T00:22:11.556Z,25.5
2017-04-11T00:23:11.493Z,25.4
2017-04-11T00:24:11.429Z,25.39
2017-04-11T00:25:11.369Z,25.49
2017-04-11T00:26:11.320Z,25.39
2017-04-11T00:27:11.243Z,25.49
2017-04-11T00:28:11.184Z,25.49
2017-04-11T00:29:11.124Z,25.29
2017-04-11T00:30:11.055Z,25.49
2017-04-11T00:31:10.993Z,25.29
2017-04-11T00:32:10.929Z,25.39
2017-04-11T00:33:10.868Z,25.49
2017-04-11T00:34:10.812Z,25.39
2017-04-11T00:35:10.743Z,25.39
2017-04-11T00:36:10.682Z,25.49
2017-04-11T00:37:10.769Z,25.4
2017-04-11T00:38:10.556Z,25.5
2017-04-11T00:39:10.495Z,25.49
2017-04-11T00:40:10.137Z,25.5
2017-04-11T00:41:10.370Z,25.49
2017-04-11T00:42:10.508Z,25.29
2017-04-11T00:43:10.248Z,25.6
2017-04-11T00:44:10.213Z,25.49
2017-04-11T00:45:10.121Z,25.49
2017-04-11T00:46:10.095Z,25.49
2017-04-11T00:47:09.997Z,25.39
2017-04-11T00:48:09.933Z,25.49
2017-04-11T00:49:09.873Z,25.6
2017-04-11T00:50:09.810Z,25.59
2017-04-11T00:51:09.747Z,25.59
2017-04-11T00:52:09.682Z,25.49
2017-04-11T00:53:09.621Z,25.5
2017-04-11T00:54:09.559Z,25.59
2017-04-11T00:55:09.497Z,25.4
2017-04-11T00:56:09.433Z,25.39
2017-04-11T00:57:09.380Z,25.5
2017-04-11T00:58:09.312Z,25.49
2017-04-11T00:59:09.247Z,25.59
2017-04-11T01:00:09.208Z,25.4
2017-04-11T01:01:09.123Z,25.59
2017-04-11T01:02:09.063Z,25.59
2017-04-11T01:03:09.035Z,25.7
2017-04-11T01:04:08.930Z,25.49
2017-04-11T01:05:08.871Z,25.5
2017-04-11T01:06:08.807Z,25.49
2017-04-11T01:07:08.747Z,25.49
2017-04-11T01:08:08.548Z,25.59
2017-04-11T01:09:08.624Z,25.49
2017-04-11T01:10:08.558Z,25.5
2017-04-11T01:11:08.494Z,25.49
2017-04-11T01:12:08.446Z,25.5
2017-04-11T01:13:08.374Z,25.49
2017-04-11T01:14:08.310Z,25.5
2017-04-11T01:15:08.277Z,25.5
2017-04-11T01:16:08.185Z,25.5
2017-04-11T01:17:08.122Z,25.39
2017-04-11T01:18:08.059Z,25.4
2017-04-11T01:19:08.000Z,25.39
2017-04-11T01:20:07.936Z,25.49
2017-04-11T01:21:07.871Z,25.68
2017-04-11T01:22:07.812Z,25.59
2017-04-11T01:23:07.749Z,25.49
2017-04-11T01:24:07.686Z,25.6
2017-04-11T01:25:07.624Z,25.49
2017-04-11T01:26:07.561Z,25.49
2017-04-11T01:27:07.497Z,25.49
2017-04-11T01:28:07.437Z,25.59
2017-04-11T01:29:07.376Z,25.59
2017-04-11T01:30:07.311Z,25.59
2017-04-11T01:31:07.249Z,25.4
2017-04-11T01:32:07.184Z,25.39
2017-04-11T01:33:07.122Z,25.39
2017-04-11T01:34:07.062Z,25.68
2017-04-11T01:35:06.997Z,25.59
2017-04-11T01:36:06.938Z,25.49
2017-04-11T01:37:06.872Z,25.49
2017-04-11T01:38:06.812Z,25.59
2017-04-11T01:39:06.747Z,25.68
2017-04-11T01:40:06.690Z,25.59
2017-04-11T01:41:06.623Z,25.49
2017-04-11T01:42:06.259Z,25.5
2017-04-11T01:43:06.501Z,25.59
2017-04-11T01:44:06.283Z,25.68
2017-04-11T01:45:06.436Z,25.59
2017-04-11T01:46:06.311Z,25.49
2017-04-11T01:47:06.250Z,25.59
2017-04-11T01:48:06.187Z,25.49
2017-04-11T01:49:06.133Z,25.49
2017-04-11T01:50:05.760Z,25.59
2017-04-11T01:51:06.008Z,25.59
2017-04-11T01:52:05.942Z,25.59
2017-04-11T01:53:05.876Z,25.39
2017-04-11T01:54:05.511Z,25.68
2017-04-11T01:55:05.751Z,25.68
2017-04-11T01:56:05.688Z,25.59
2017-04-11T01:57:05.323Z,25.59
2017-04-11T01:58:05.562Z,25.68
2017-04-11T01:59:05.503Z,25.68
2017-04-11T02:00:05.437Z,25.49
2017-04-11T02:01:05.386Z,25.68
2017-04-11T02:02:05.315Z,25.59
2017-04-11T02:03:05.253Z,25.68
2017-04-11T02:04:05.187Z,25.59
2017-04-11T02:05:04.829Z,25.59
2017-04-11T02:06:04.762Z,25.68
2017-04-11T02:07:05.003Z,25.59
2017-04-11T02:08:04.953Z,25.68
2017-04-11T02:09:04.876Z,25.68
2017-04-11T02:10:04.814Z,25.68
2017-04-11T02:11:04.451Z,25.68
2017-04-11T02:12:04.687Z,25.68
2017-04-11T02:13:04.626Z,25.78
2017-04-11T02:14:04.563Z,25.59
2017-04-11T02:15:04.498Z,25.59
2017-04-11T02:16:04.438Z,25.78
2017-04-11T02:17:04.371Z,25.68
2017-04-11T02:18:04.312Z,25.59
2017-04-11T02:19:04.249Z,25.68
2017-04-11T02:20:04.235Z,25.59
2017-04-11T02:21:04.131Z,25.59
2017-04-11T02:22:04.060Z,25.59
2017-04-11T02:23:03.999Z,25.59
2017-04-11T02:24:03.939Z,25.59
2017-04-11T02:25:03.907Z,25.59
2017-04-11T02:26:03.813Z,25.59
2017-04-11T02:27:03.755Z,25.59
2017-04-11T02:28:03.686Z,25.68
2017-04-11T02:29:03.626Z,25.49
2017-04-11T02:30:03.565Z,25.59
2017-04-11T02:31:03.501Z,25.59
2017-04-11T02:32:03.440Z,25.49
2017-04-11T02:33:03.377Z,25.59
2017-04-11T02:34:03.317Z,25.59
2017-04-11T02:35:03.249Z,25.59
2017-04-11T02:36:03.191Z,25.59
2017-04-11T02:37:03.124Z,25.49
2017-04-11T02:38:03.063Z,25.49
2017-04-11T02:39:03.001Z,25.59
2017-04-11T02:40:02.636Z,25.59
2017-04-11T02:41:02.875Z,25.59
2017-04-11T02:42:02.813Z,25.59
2017-04-11T02:43:02.750Z,25.68
2017-04-11T02:44:02.690Z,25.78
2017-04-11T02:45:02.625Z,25.59
2017-04-11T02:46:02.560Z,25.78
2017-04-11T02:47:02.500Z,25.68
2017-04-11T02:48:02.439Z,25.68
2017-04-11T02:49:02.375Z,25.59
2017-04-11T02:50:02.314Z,25.68
2017-04-11T02:51:01.949Z,25.68
2017-04-11T02:52:02.187Z,25.59
2017-04-11T02:53:02.127Z,25.78
2017-04-11T02:54:02.067Z,25.68
2017-04-11T02:55:01.999Z,25.68
2017-04-11T02:56:01.937Z,25.49
2017-04-11T02:57:01.873Z,25.59
2017-04-11T02:58:01.813Z,25.59
2017-04-11T02:59:01.752Z,25.68
2017-04-11T03:00:01.687Z,25.68
2017-04-11T03:01:01.626Z,25.68
2017-04-11T03:02:01.568Z,25.68
2017-04-11T03:03:01.500Z,25.59
2017-04-11T03:04:01.436Z,25.68
2017-04-11T03:05:01.377Z,25.68
2017-04-11T03:06:01.313Z,25.68
2017-04-11T03:07:01.249Z,25.87
2017-04-11T03:08:01.189Z,25.68
2017-04-11T03:09:01.127Z,25.68
2017-04-11T03:10:01.101Z,25.68
2017-04-11T03:11:00.699Z,25.59
2017-04-11T03:12:00.940Z,25.68
2017-04-11T03:13:00.875Z,25.59
2017-04-11T03:14:00.510Z,25.59
2017-04-11T03:15:00.453Z,25.49
2017-04-11T03:16:00.687Z,25.59
2017-04-11T03:17:00.629Z,25.59
2017-04-11T03:18:00.563Z,25.59
2017-04-11T03:19:00.503Z,25.59
2017-04-11T03:20:00.443Z,25.59
2017-04-11T03:21:00.374Z,25.68
2017-04-11T03:22:00.009Z,25.49
2017-04-11T03:23:00.288Z,25.68
2017-04-11T03:24:00.190Z,25.59
2017-04-11T03:25:00.125Z,25.49
2017-04-11T03:25:59.759Z,25.68
2017-04-11T03:27:00.000Z,25.59
2017-04-11T03:27:59.938Z,25.59
2017-04-11T03:28:59.875Z,25.68
2017-04-11T03:29:59.815Z,25.59
2017-04-11T03:30:59.750Z,25.68
2017-04-11T03:31:59.386Z,25.68
2017-04-11T03:32:59.329Z,25.68
2017-04-11T03:33:59.264Z,25.59
2017-04-11T03:34:59.199Z,25.68
2017-04-11T03:35:59.435Z,25.68
2017-04-11T03:36:59.376Z,25.59
2017-04-11T03:37:59.309Z,25.59
2017-04-11T03:38:59.288Z,25.59
2017-04-11T03:39:59.188Z,25.49
2017-04-11T03:40:58.821Z,25.59
2017-04-11T03:41:59.072Z,25.59
2017-04-11T03:42:59.001Z,25.68
2017-04-11T03:43:58.937Z,25.68
2017-04-11T03:44:58.874Z,25.68
2017-04-11T03:45:58.815Z,25.68
2017-04-11T03:46:58.748Z,25.59
2017-04-11T03:47:58.687Z,25.59
2017-04-11T03:48:58.623Z,25.49
2017-04-11T03:49:58.560Z,25.49
2017-04-11T03:50:58.501Z,25.59
2017-04-11T03:51:58.436Z,25.59
2017-04-11T03:52:58.380Z,25.68
2017-04-11T03:53:58.310Z,25.68
2017-04-11T03:54:57.945Z,25.49
2017-04-11T03:55:57.887Z,25.59
2017-04-11T03:56:58.119Z,25.59
2017-04-11T03:57:58.057Z,25.49
2017-04-11T03:58:57.998Z,25.68
2017-04-11T03:59:57.934Z,25.49
2017-04-11T04:00:57.873Z,25.59
2017-04-11T04:01:57.808Z,25.68
2017-04-11T04:02:57.750Z,25.59
2017-04-11T04:03:57.691Z,25.49
2017-04-11T04:04:57.624Z,25.39
2017-04-11T04:05:57.564Z,25.29
2017-04-11T04:06:57.497Z,25.1
2017-04-11T04:07:57.436Z,25.01
2017-04-11T04:08:57.371Z,24.52
2017-04-11T04:09:57.022Z,24.52
2017-04-11T04:10:57.251Z,24.23
2017-04-11T04:11:57.186Z,24.14
2017-04-11T04:12:57.118Z,23.65
2017-04-11T04:13:57.059Z,23.85
2017-04-11T04:14:56.995Z,23.85
2017-04-11T04:15:56.970Z,23.75
2017-04-11T04:16:56.871Z,23.65
2017-04-11T04:17:56.809Z,24.04
2017-04-11T04:18:56.748Z,23.65
2017-04-11T04:19:56.682Z,23.85
2017-04-11T04:20:56.620Z,23.36
2017-04-11T04:21:56.559Z,23.56
2017-04-11T04:22:56.492Z,23.56
2017-04-11T04:23:56.440Z,23.56
2017-04-11T04:24:56.370Z,23.56
2017-04-11T04:25:56.470Z,23.36
2017-04-11T04:26:56.250Z,23.27
2017-04-11T04:27:56.183Z,23.08
2017-04-11T04:28:56.120Z,23.36
2017-04-11T04:29:56.056Z,23.08
2017-04-11T04:30:55.993Z,23.17
2017-04-11T04:31:55.929Z,23.27
2017-04-11T04:32:55.867Z,22.78
2017-04-11T04:33:55.807Z,23.46
2017-04-11T04:34:55.741Z,23.36
2017-04-11T04:35:55.685Z,22.78
2017-04-11T04:36:55.620Z,22.78
2017-04-11T04:37:55.557Z,22.88
2017-04-11T04:38:55.492Z,22.78
2017-04-11T04:39:55.430Z,22.88
2017-04-11T04:40:55.369Z,22.98
2017-04-11T04:41:55.304Z,23.08
2017-04-11T04:42:55.243Z,22.98
2017-04-11T04:43:55.181Z,22.98
2017-04-11T04:44:55.118Z,22.98
2017-04-11T04:45:55.053Z,23.08
2017-04-11T04:46:54.992Z,22.59
2017-04-11T04:47:54.935Z,23.17
2017-04-11T04:48:54.881Z,23.08
2017-04-11T04:49:54.804Z,22.88
2017-04-11T04:50:54.743Z,23.08
2017-04-11T04:51:54.679Z,22.98
2017-04-11T04:52:54.617Z,22.98
2017-04-11T04:53:54.556Z,22.78
2017-04-11T04:54:54.492Z,22.98
2017-04-11T04:55:54.676Z,22.98
2017-04-11T04:56:54.367Z,22.78
2017-04-11T04:57:54.305Z,22.98
2017-04-11T04:58:54.242Z,22.98
2017-04-11T04:59:54.181Z,22.78
2017-04-11T05:00:54.117Z,22.88
2017-04-11T05:01:54.051Z,22.98
2017-04-11T05:02:53.988Z,22.78
2017-04-11T05:03:53.927Z,22.98
2017-04-11T05:04:53.864Z,22.88
2017-04-11T05:05:53.805Z,22.78
2017-04-11T05:06:53.739Z,22.69
2017-04-11T05:07:53.678Z,22.4
2017-04-11T05:08:53.627Z,22.88
2017-04-11T05:09:53.550Z,22.78
2017-04-11T05:10:53.489Z,22.69
2017-04-11T05:11:53.434Z,22.88
2017-04-11T05:12:53.364Z,22.78
2017-04-11T05:13:53.302Z,22.88
2017-04-11T05:14:53.245Z,22.5
2017-04-11T05:15:53.179Z,22.69
2017-04-11T05:16:53.114Z,22.69
2017-04-11T05:17:53.050Z,22.88
2017-04-11T05:18:52.988Z,22.59
2017-04-11T05:19:52.924Z,22.88
2017-04-11T05:20:52.864Z,22.3
2017-04-11T05:21:52.800Z,22.5
2017-04-11T05:22:52.738Z,22.5
2017-04-11T05:23:52.673Z,22.5
2017-04-11T05:24:52.612Z,22.59
2017-04-11T05:25:52.548Z,22.69
2017-04-11T05:26:52.492Z,22.59
2017-04-11T05:27:52.462Z,22.59
2017-04-11T05:28:52.361Z,22.5
2017-04-11T05:29:52.308Z,22.59
2017-04-11T05:30:52.237Z,22.69
2017-04-11T05:31:51.875Z,22.69
2017-04-11T05:32:52.109Z,22.59
2017-04-11T05:33:52.051Z,22.59
2017-04-11T05:34:51.983Z,22.59
2017-04-11T05:35:51.923Z,22.78
2017-04-11T05:36:51.862Z,22.69
2017-04-11T05:37:51.494Z,22.69
2017-04-11T05:38:51.735Z,22.78
2017-04-11T05:39:51.673Z,22.59
2017-04-11T05:40:51.609Z,22.69
2017-04-11T05:41:51.547Z,22.78
2017-04-11T05:42:51.487Z,22.69
2017-04-11T05:43:51.421Z,22.5
2017-04-11T05:44:51.356Z,22.5
2017-04-11T05:45:51.295Z,22.5
2017-04-11T05:46:50.933Z,22.5
2017-04-11T05:47:51.171Z,22.78
2017-04-11T05:48:51.109Z,22.69
2017-04-11T05:49:51.049Z,22.5
2017-04-11T05:50:50.980Z,22.5
2017-04-11T05:51:50.918Z,22.59
2017-04-11T05:52:50.855Z,22.59
2017-04-11T05:53:50.794Z,22.5
2017-04-11T05:54:50.747Z,22.5
2017-04-11T05:55:50.665Z,22.5
2017-04-11T05:56:50.602Z,22.5
2017-04-11T05:57:50.547Z,22.5
2017-04-11T05:58:50.479Z,22.59
2017-04-11T05:59:50.417Z,22.5
2017-04-11T06:00:50.354Z,22.4
2017-04-11T06:01:50.292Z,22.5
2017-04-11T06:02:50.227Z,22.5
2017-04-11T06:03:50.167Z,22.59
2017-04-11T06:04:50.104Z,22.4
2017-04-11T06:05:50.040Z,22.69
2017-04-11T06:06:49.978Z,22.59
2017-04-11T06:07:49.915Z,22.59
2017-04-11T06:08:49.857Z,22.59
2017-04-11T06:09:49.790Z,22.5
2017-04-11T06:10:49.732Z,22.69
2017-04-11T06:11:49.662Z,22.69
2017-04-11T06:12:49.599Z,22.59
2017-04-11T06:13:49.235Z,22.59
2017-04-11T06:14:49.504Z,22.5
2017-04-11T06:15:49.427Z,22.5
2017-04-11T06:16:49.350Z,22.5
2017-04-11T06:17:49.288Z,22.69
2017-04-11T06:18:49.266Z,22.59
2017-04-11T06:19:49.164Z,22.69
2017-04-11T06:20:49.096Z,22.5
2017-04-11T06:21:49.035Z,22.59
2017-04-11T06:22:48.975Z,22.5
2017-04-11T06:23:48.910Z,22.5
2017-04-11T06:24:48.847Z,22.5
2017-04-11T06:25:48.484Z,22.69
2017-04-11T06:26:48.724Z,22.59
2017-04-11T06:27:48.657Z,22.59
2017-04-11T06:28:48.605Z,22.3
2017-04-11T06:29:48.534Z,22.3
2017-04-11T06:30:48.317Z,22.59
2017-04-11T06:31:48.411Z,22.59
2017-04-11T06:32:48.345Z,22.59
2017-04-11T06:33:48.282Z,22.69
2017-04-11T06:34:47.919Z,22.59
2017-04-11T06:35:48.156Z,22.69
2017-04-11T06:36:48.096Z,22.69
2017-04-11T06:37:48.033Z,22.59
2017-04-11T06:38:47.972Z,22.58
2017-04-11T06:39:47.907Z,22.69
2017-04-11T06:40:47.885Z,22.5
2017-04-11T06:41:47.786Z,22.69
2017-04-11T06:42:47.718Z,22.78
2017-04-11T06:43:47.658Z,22.78
2017-04-11T06:44:47.603Z,22.78
2017-04-11T06:45:47.530Z,22.88
2017-04-11T06:46:47.464Z,22.78
2017-04-11T06:47:47.405Z,22.88
2017-04-11T06:48:47.343Z,22.88
2017-04-11T06:49:47.280Z,22.69
2017-04-11T06:50:47.213Z,22.5
2017-04-11T06:51:47.154Z,22.59
2017-04-11T06:52:47.086Z,22.69
2017-04-11T06:53:47.027Z,22.78
2017-04-11T06:54:46.666Z,22.5
2017-04-11T06:55:46.905Z,22.5
2017-04-11T06:56:46.837Z,22.78
2017-04-11T06:57:46.779Z,22.69
2017-04-11T06:58:46.718Z,22.69
2017-04-11T06:59:46.649Z,22.59
2017-04-11T07:00:46.586Z,22.78
2017-04-11T07:01:46.525Z,22.69
2017-04-11T07:02:46.475Z,22.69
2017-04-11T07:03:46.398Z,22.59
2017-04-11T07:04:46.347Z,22.5
2017-04-11T07:05:46.269Z,22.5
2017-04-11T07:06:46.212Z,22.4
2017-04-11T07:07:46.152Z,22.4
2017-04-11T07:08:46.088Z,22.5
2017-04-11T07:09:46.021Z,22.59
2017-04-11T07:10:45.961Z,22.5
2017-04-11T07:11:45.897Z,22.49
2017-04-11T07:12:45.832Z,22.49
2017-04-11T07:13:45.770Z,22.39
2017-04-11T07:14:45.707Z,22.78
2017-04-11T07:15:45.644Z,22.88
2017-04-11T07:16:45.595Z,22.87
2017-04-11T07:17:45.518Z,22.88
2017-04-11T07:18:45.456Z,22.77
2017-04-11T07:19:45.389Z,22.77
2017-04-11T07:20:45.680Z,22.58
2017-04-11T07:21:45.266Z,22.77
2017-04-11T07:22:45.203Z,22.39
2017-04-11T07:23:45.139Z,22.87
2017-04-11T07:24:45.085Z,22.58
2017-04-11T07:25:45.165Z,22.29
2017-04-11T07:26:44.950Z,22.3
2017-04-11T07:27:44.890Z,22.87
2017-04-11T07:28:44.830Z,22.69
2017-04-11T07:29:44.764Z,22.3
2017-04-11T07:30:44.703Z,22.4
2017-04-11T07:31:44.651Z,22.87
2017-04-11T07:32:44.574Z,22.77
2017-04-11T07:33:44.513Z,22.77
2017-04-11T07:34:44.457Z,22.87
2017-04-11T07:35:44.385Z,22.78
2017-04-11T07:36:44.323Z,22.88
2017-04-11T07:37:44.260Z,22.88
2017-04-11T07:38:44.220Z,22.78
2017-04-11T07:39:44.138Z,23.08
2017-04-11T07:40:44.074Z,23.07
2017-04-11T07:41:44.008Z,23.07
2017-04-11T07:42:43.959Z,22.98
2017-04-11T07:43:43.582Z,23.08
2017-04-11T07:44:43.821Z,22.98
2017-04-11T07:45:43.759Z,22.98
2017-04-11T07:46:43.695Z,23.07
2017-04-11T07:47:43.635Z,22.98
2017-04-11T07:48:43.572Z,22.97
2017-04-11T07:49:43.506Z,23.35
2017-04-11T07:50:43.446Z,23.56
2017-04-11T07:51:43.383Z,22.78
2017-04-11T07:52:43.315Z,23.27
2017-04-11T07:53:43.254Z,22.77
2017-04-11T07:54:42.891Z,22.78
2017-04-11T07:55:42.826Z,23.17
2017-04-11T07:56:43.093Z,22.97
2017-04-11T07:57:43.004Z,23.25
2017-04-11T07:58:42.941Z,23.25
2017-04-11T07:59:42.876Z,23.16
2017-04-11T08:00:43.127Z,23.16
2017-04-11T08:01:42.753Z,23.17
2017-04-11T08:02:42.695Z,23.45
2017-04-11T08:03:42.627Z,23.45
2017-04-11T08:04:42.564Z,23.65
2017-04-11T08:05:42.621Z,23.27
2017-04-11T08:06:42.441Z,23.46
2017-04-11T08:07:42.376Z,23.46
2017-04-11T08:08:42.316Z,23.45
2017-04-11T08:09:42.251Z,24.04
2017-04-11T08:10:42.188Z,23.36
2017-04-11T08:11:42.124Z,24.04
2017-04-11T08:12:42.067Z,23.65
2017-04-11T08:13:41.995Z,23.65
2017-04-11T08:14:41.938Z,23.94
2017-04-11T08:15:41.882Z,23.85
2017-04-11T08:16:41.832Z,23.75
2017-04-11T08:17:41.746Z,23.75
2017-04-11T08:18:41.694Z,24.04
2017-04-11T08:19:41.638Z,24.14
2017-04-11T08:20:41.569Z,24.23
2017-04-11T08:21:41.504Z,24.04
2017-04-11T08:22:41.453Z,24.04
2017-04-11T08:23:41.384Z,24.43
2017-04-11T08:24:41.318Z,24.23
2017-04-11T08:25:41.247Z,24.43
2017-04-11T08:26:41.196Z,24.62
2017-04-11T08:27:41.119Z,24.52
2017-04-11T08:28:41.058Z,24.52
2017-04-11T08:29:40.992Z,24.52
2017-04-11T08:30:40.931Z,24.43
2017-04-11T08:31:40.890Z,24.81
2017-04-11T08:32:40.807Z,24.81
2017-04-11T08:33:40.765Z,24.91
2017-04-11T08:34:40.385Z,24.81
2017-04-11T08:35:40.618Z,24.81
2017-04-11T08:36:40.556Z,24.72
2017-04-11T08:37:40.490Z,24.81
2017-04-11T08:38:40.174Z,24.91
2017-04-11T08:39:40.366Z,24.81
2017-04-11T08:40:40.302Z,24.91
2017-04-11T08:41:40.244Z,24.91
2017-04-11T08:42:40.182Z,24.72
2017-04-11T08:43:40.113Z,24.81
2017-04-11T08:44:40.055Z,25.01
2017-04-11T08:45:40.013Z,25.1
2017-04-11T08:46:39.960Z,25.2
2017-04-11T08:47:39.891Z,24.72
2017-04-11T08:48:39.810Z,25.1
2017-04-11T08:49:39.746Z,25.1
2017-04-11T08:50:39.674Z,25.01
2017-04-11T08:51:39.614Z,25.1
2017-04-11T08:52:39.549Z,25.01
2017-04-11T08:53:39.487Z,25.1
2017-04-11T08:54:39.432Z,25.01
2017-04-11T08:55:39.364Z,25.59
2017-04-11T08:56:39.308Z,25.2
2017-04-11T08:57:39.454Z,24.81
2017-04-11T08:58:39.174Z,24.43
2017-04-11T08:59:39.114Z,24.43
2017-04-11T09:00:39.058Z,24.72
2017-04-11T09:01:38.982Z,25.2
2017-04-11T09:02:38.922Z,25.01
2017-04-11T09:03:38.862Z,25.2
2017-04-11T09:04:38.800Z,24.43
2017-04-11T09:05:38.736Z,24.52
2017-04-11T09:06:38.672Z,24.72
2017-04-11T09:07:38.610Z,24.81
2017-04-11T09:08:38.548Z,24.91
2017-04-11T09:09:38.482Z,24.72
2017-04-11T09:10:38.424Z,25.1
2017-04-11T09:11:38.359Z,25.29
2017-04-11T09:12:38.300Z,25.49
2017-04-11T09:13:38.236Z,25.59
2017-04-11T09:14:38.175Z,25.68
2017-04-11T09:15:38.108Z,25.68
2017-04-11T09:16:38.047Z,25.98
2017-04-11T09:17:37.983Z,25.97
2017-04-11T09:18:37.925Z,26.08
2017-04-11T09:19:37.563Z,26.17
2017-04-11T09:20:37.793Z,26.26
2017-04-11T09:21:37.733Z,26.26
2017-04-11T09:22:37.672Z,25.89
2017-04-11T09:23:37.607Z,26.26
2017-04-11T09:24:37.548Z,26.66
2017-04-11T09:25:37.637Z,26.95
2017-04-11T09:26:37.417Z,27.24
2017-04-11T09:27:37.362Z,26.95
2017-04-11T09:28:37.298Z,26.66
2017-04-11T09:29:37.234Z,27.14
2017-04-11T09:30:37.427Z,27.44
2017-04-11T09:31:37.111Z,27.34
2017-04-11T09:32:37.050Z,27.14
2017-04-11T09:33:36.986Z,27.24
2017-04-11T09:34:36.921Z,27.44
2017-04-11T09:35:36.858Z,27.82
2017-04-11T09:36:36.810Z,27.72
2017-04-11T09:37:36.746Z,27.53
2017-04-11T09:38:36.672Z,27.82
2017-04-11T09:39:36.609Z,27.92
2017-04-11T09:40:36.547Z,28.4
2017-04-11T09:41:36.484Z,28.02
2017-04-11T09:42:36.440Z,27.53
2017-04-11T09:43:36.362Z,27.53
2017-04-11T09:44:36.298Z,27.24
2017-04-11T09:45:36.238Z,27.24
2017-04-11T09:46:36.175Z,27.82
2017-04-11T09:47:36.111Z,28.02
2017-04-11T09:48:36.047Z,27.62
2017-04-11T09:49:35.987Z,27.24
2017-04-11T09:50:35.926Z,27.92
2017-04-11T09:51:35.859Z,27.82
2017-04-11T09:52:35.799Z,27.72
2017-04-11T09:53:35.738Z,27.24
2017-04-11T09:54:35.678Z,27.34
2017-04-11T09:55:35.308Z,27.53
2017-04-11T09:56:35.553Z,27.24
2017-04-11T09:57:35.486Z,27.34
2017-04-11T09:58:35.425Z,27.53
2017-04-11T09:59:35.363Z,27.44
2017-04-11T10:00:35.300Z,27.44
2017-04-11T10:01:35.249Z,27.24
2017-04-11T10:02:35.174Z,27.53
2017-04-11T10:03:35.114Z,27.44
2017-04-11T10:04:35.050Z,27.14
2017-04-11T10:05:34.696Z,27.24
2017-04-11T10:06:34.923Z,27.34
2017-04-11T10:07:34.862Z,27.04
2017-04-11T10:08:34.815Z,27.14
2017-04-11T10:09:34.436Z,26.95
2017-04-11T10:10:34.372Z,27.04
2017-04-11T10:11:34.312Z,26.76
2017-04-11T10:12:34.550Z,26.86
2017-04-11T10:13:34.516Z,26.75
2017-04-11T10:14:34.426Z,26.76
2017-04-11T10:15:34.060Z,26.86
2017-04-11T10:16:33.997Z,26.56
2017-04-11T10:17:33.947Z,26.66
2017-04-11T10:18:34.180Z,26.46
2017-04-11T10:19:34.119Z,26.46
2017-04-11T10:20:34.053Z,26.46
2017-04-11T10:21:33.990Z,26.37
2017-04-11T10:22:33.925Z,26.37
2017-04-11T10:23:33.866Z,26.28
2017-04-11T10:24:33.798Z,26.07
2017-04-11T10:25:33.741Z,25.98
2017-04-11T10:26:33.676Z,25.98
2017-04-11T10:27:33.616Z,25.97
2017-04-11T10:28:33.252Z,25.98
2017-04-11T10:29:33.490Z,25.97
2017-04-11T10:30:33.123Z,25.98
2017-04-11T10:31:33.063Z,25.98
2017-04-11T10:32:33.308Z,25.97
2017-04-11T10:33:33.237Z,25.59
2017-04-11T10:34:33.173Z,25.68
2017-04-11T10:35:33.119Z,25.59
2017-04-11T10:36:33.052Z,25.68
2017-04-11T10:37:32.992Z,25.49
2017-04-11T10:38:32.929Z,25.59
2017-04-11T10:39:32.870Z,25.59
2017-04-11T10:40:32.804Z,25.49
2017-04-11T10:41:32.443Z,25.29
2017-04-11T10:42:32.675Z,25.1
2017-04-11T10:43:32.619Z,24.73
2017-04-11T10:44:32.552Z,24.91
2017-04-11T10:45:32.491Z,24.91
2017-04-11T10:46:32.123Z,24.81
2017-04-11T10:47:32.365Z,25.2
2017-04-11T10:48:32.305Z,25.1
2017-04-11T10:49:32.243Z,25.01
2017-04-11T10:50:32.185Z,25.01
2017-04-11T10:51:32.213Z,24.91
2017-04-11T10:52:32.059Z,25.01
2017-04-11T10:53:31.988Z,24.72
2017-04-11T10:54:31.928Z,24.91
2017-04-11T10:55:31.864Z,24.81
2017-04-11T10:56:31.802Z,24.91
2017-04-11T10:57:31.742Z,24.91
2017-04-11T10:58:31.677Z,24.72
2017-04-11T10:59:31.618Z,24.81
2017-04-11T11:00:32.022Z,24.81
2017-04-11T11:01:31.489Z,24.91
2017-04-11T11:02:31.124Z,24.81
2017-04-11T11:03:31.362Z,24.52
2017-04-11T11:04:31.301Z,24.52
2017-04-11T11:05:31.241Z,24.23
2017-04-11T11:06:31.183Z,24.33
2017-04-11T11:07:31.114Z,24.14
2017-04-11T11:08:31.050Z,24.14
2017-04-11T11:09:30.989Z,24.14
2017-04-11T11:10:30.926Z,24.04
2017-04-11T11:11:30.890Z,23.75
2017-04-11T11:12:30.802Z,23.94
2017-04-11T11:13:30.738Z,23.85
2017-04-11T11:14:30.681Z,23.85
2017-04-11T11:15:30.613Z,23.85
2017-04-11T11:16:30.550Z,23.75
2017-04-11T11:17:30.488Z,23.75
2017-04-11T11:18:30.429Z,23.85
2017-04-11T11:19:30.364Z,23.75
2017-04-11T11:20:30.299Z,23.75
2017-04-11T11:21:30.238Z,23.75
2017-04-11T11:22:30.176Z,23.56
2017-04-11T11:23:30.112Z,23.46
2017-04-11T11:24:30.053Z,23.65
2017-04-11T11:25:30.085Z,23.46
2017-04-11T11:26:29.620Z,23.65
2017-04-11T11:27:29.860Z,23.56
2017-04-11T11:28:29.509Z,23.55
2017-04-11T11:29:29.738Z,23.74
2017-04-11T11:30:29.673Z,23.74
2017-04-11T11:31:29.610Z,23.74
2017-04-11T11:32:29.546Z,24.03
2017-04-11T11:33:29.504Z,23.74
2017-04-11T11:34:29.447Z,23.74
2017-04-11T11:35:29.356Z,23.83
2017-04-11T11:36:29.294Z,23.74
2017-04-11T11:37:29.230Z,24.13
2017-04-11T11:38:29.168Z,24.13
2017-04-11T11:39:29.110Z,24.13
2017-04-11T11:40:29.042Z,24.13
2017-04-11T11:41:28.978Z,24.41
2017-04-11T11:42:28.917Z,24.41
2017-04-11T11:43:28.853Z,24.22
2017-04-11T11:44:28.792Z,24.13
2017-04-11T11:45:28.730Z,24.32
2017-04-11T11:46:28.694Z,24.51
2017-04-11T11:47:28.600Z,24.61
2017-04-11T11:48:28.236Z,24.61
2017-04-11T11:49:28.474Z,24.41
2017-04-11T11:50:28.133Z,24.32
2017-04-11T11:51:28.350Z,24.71
2017-04-11T11:52:28.285Z,24.71
2017-04-11T11:53:28.222Z,24.8
2017-04-11T11:54:28.159Z,24.88
2017-04-11T11:55:28.095Z,24.79
2017-04-11T11:56:28.038Z,24.99
2017-04-11T11:57:27.970Z,25.18
2017-04-11T11:58:27.905Z,25.18
2017-04-11T11:59:27.844Z,25.08
2017-04-11T12:00:27.779Z,25.08
2017-04-11T12:01:27.719Z,25.18
2017-04-11T12:02:27.675Z,25.18
2017-04-11T12:03:27.591Z,25.27
2017-04-11T12:04:27.225Z,25.27
2017-04-11T12:05:27.463Z,25.56
2017-04-11T12:06:27.426Z,25.56
2017-04-11T12:07:27.339Z,25.66
2017-04-11T12:08:27.284Z,25.86
2017-04-11T12:09:27.209Z,26.06
2017-04-11T12:10:27.145Z,26.06
2017-04-11T12:11:27.082Z,26.06
2017-04-11T12:12:27.019Z,26.06
2017-04-11T12:13:26.971Z,25.96
2017-04-11T12:14:26.589Z,25.96
2017-04-11T12:15:26.831Z,26.25
2017-04-11T12:16:26.467Z,26.25
2017-04-11T12:17:26.716Z,26.44
2017-04-11T12:18:26.643Z,26.25
2017-04-11T12:19:26.276Z,26.44
2017-04-11T12:20:26.515Z,26.15
2017-04-11T12:21:26.451Z,26.44
2017-04-11T12:22:26.433Z,26.54
2017-04-11T12:23:26.035Z,26.44
2017-04-11T12:24:25.991Z,26.34
2017-04-11T12:25:26.231Z,26.44
2017-04-11T12:26:25.950Z,26.54
2017-04-11T12:27:26.077Z,26.82
2017-04-11T12:28:26.010Z,26.73
2017-04-11T12:29:25.951Z,26.73
2017-04-11T12:30:26.036Z,26.82
2017-04-11T12:31:25.821Z,27.12
2017-04-11T12:32:25.457Z,26.82
2017-04-11T12:33:25.392Z,26.82
2017-04-11T12:34:25.332Z,26.82
2017-04-11T12:35:25.931Z,26.54
2017-04-11T12:36:25.512Z,26.34
2017-04-11T12:37:25.141Z,26.26
2017-04-11T12:38:25.083Z,26.84
2017-04-11T12:39:25.318Z,26.35
2017-04-11T12:40:25.264Z,26.26
2017-04-11T12:41:25.198Z,26.17
2017-04-11T12:42:25.129Z,26.26
2017-04-11T12:43:25.066Z,26.26
2017-04-11T12:44:25.005Z,26.35
2017-04-11T12:45:24.944Z,26.26
2017-04-11T12:46:24.880Z,26.26
2017-04-11T12:47:24.814Z,26.17
2017-04-11T12:48:24.449Z,25.97
2017-04-11T12:49:24.694Z,25.97
2017-04-11T12:50:24.628Z,25.87
2017-04-11T12:51:24.566Z,26.45
2017-04-11T12:52:24.506Z,26.26
2017-04-11T12:53:24.491Z,26.17
2017-04-11T12:54:24.380Z,26.07
2017-04-11T12:55:24.315Z,25.97